• Join FlightAware (Why Join?)
  • Login
  • US Flag 
04:02AM EST


 

Airport Tracker/Info


-or-


 

Live Flight TrackerFlight Track Log ✈ AAY860 ✈ 30-Jun-2014 ✈ KPIE - KLEX

Flight Track Log - Related Links

Times and Time Zones

All times are in EDT time to prevent confusion due to time zone crossing. See the AAY860 flight status page for this flight to view local times or setup timezone preferences in your user account.

Time Position Orientation Groundspeed Altitude Reporting Facility
EDT Latitude Longitude Course Direction KTS MPH feet Rate Location/Type
06:26AM 27.9333 -82.7000 360° North 170 196 900  Level Tampa TRACON
06:26AM 27.9500 -82.7000 360° North 165 190 1,500 1,800 Climbing Tampa TRACON
06:28AM 28.0472 -82.6522 23° Northeast 239 275 5,100 2,100 Climbing Miami Center
06:34AM 28.5983 -82.6232 North 382 440 18,300 2,160 Climbing FlightAware ADS-B (KMCO)
06:35AM 28.6737 -82.6204 North 388 447 19,600 1,560 Climbing FlightAware ADS-B (KMCO)
06:36AM 28.7628 -82.6172 North 388 447 21,100 1,560 Climbing FlightAware ADS-B (KMCO)
06:37AM 28.9001 -82.6122 North 412 474 22,700 1,560 Climbing FlightAware ADS-B (KMCO)
06:38AM 29.0453 -82.6070 North 415 478 24,700 1,440 Climbing FlightAware ADS-B (KMCO)
06:39AM 29.1253 -82.6041 North 428 493 25,500 1,020 Climbing FlightAware ADS-B (KMCO)
06:40AM 29.2195 -82.6007 North 435 501 26,600 1,020 Climbing FlightAware ADS-B (KMCO)
06:43AM 29.6445 -82.5851 North 460 529 29,900 1,020 Climbing FlightAware ADS-B (KMCO)
06:44AM 29.7298 -82.5819 North 464 534 30,500 960 Climbing FlightAware ADS-B (KMCO)
06:44AM 29.8055 -82.5792 North 466 536 31,100 1,320 Climbing FlightAware ADS-B (KMCO)
06:45AM 29.9445 -82.5740 North 455 524 32,800 1,320 Climbing FlightAware ADS-B (KMCO)
06:46AM 30.0324 -82.5707 North 455 524 33,500 1,260 Climbing FlightAware ADS-B (KMCO)
06:47AM 30.1172 -82.5675 North 447 514 34,500 1,320 Climbing FlightAware ADS-B (KMCO)
06:47AM 30.1986 -82.5645 North 443 510 35,300 1,020 Climbing FlightAware ADS-B (KMCO)
06:48AM 30.3184 -82.5600 North 443 510 36,200 660 Climbing FlightAware ADS-B (KMCO)
06:49AM 30.4269 -82.5578 North 444 511 36,700 300 Climbing Jacksonville Center
06:50AM 30.5500 -82.5547 North 438 504 36,900 60 Climbing Jacksonville Center
06:51AM 30.6775 -82.5494 North 438 504 36,900  Level Jacksonville Center
06:52AM 30.8089 -82.5442 North 438 504 36,900  Level Jacksonville Center
06:53AM 30.9319 -82.5367 North 438 504 36,900  Level Jacksonville Center
06:54AM 31.0572 -82.5336 North 438 504 36,900  Level Jacksonville Center
06:55AM 31.1825 -82.5258 North 438 504 36,900  Level Jacksonville Center
06:56AM 31.3058 -82.5231 North 438 504 36,900  Level Jacksonville Center
06:57AM 31.4269 -82.5128 North 438 504 37,000  Climbing Jacksonville Center
06:58AM 31.5500 -82.5147 359° North 438 504 36,900 -60 Descending Jacksonville Center
07:00AM 31.7169 -82.5667 345° North 424 488 36,900  Level Atlanta Center
07:01AM 31.8342 -82.6064 344° North 424 488 36,900  Level Atlanta Center
07:02AM 31.9536 -82.6486 343° North 437 503 37,000  Climbing Atlanta Center
07:03AM 32.0731 -82.6858 345° North 442 509 37,000  Level Atlanta Center
07:04AM 32.1925 -82.7283 343° North 442 509 37,000  Level Atlanta Center
07:05AM 32.3097 -82.7658 345° North 442 509 37,000 -60 Level Atlanta Center
07:06AM 32.4314 -82.8058 344° North 442 509 36,900  Descending Atlanta Center
07:07AM 32.5486 -82.8486 343° North 436 502 37,000  Climbing Atlanta Center
07:08AM 32.6681 -82.8864 345° North 436 502 37,000 -60 Level Atlanta Center
07:09AM 32.7872 -82.9269 344° North 441 507 36,900  Descending Atlanta Center
07:10AM 32.9086 -82.9700 343° North 447 514 37,000  Climbing Atlanta Center
07:11AM 33.0322 -83.0131 344° North 447 514 37,000  Level Atlanta Center
07:12AM 33.1536 -83.0514 345° North 452 520 37,000 -60 Level Atlanta Center
07:13AM 33.2772 -83.0922 345° North 457 526 36,900  Descending Atlanta Center
07:14AM 33.4006 -83.1356 344° North 457 526 37,000  Climbing Atlanta Center
07:15AM 33.5219 -83.1792 343° North 457 526 37,000  Level Atlanta Center
07:20AM 34.2370 -83.4072 347° North 459 528 37,000  Level FlightAware ADS-B (KDZJ)
07:21AM 34.3224 -83.4317 346° North 451 519 37,000 -300 Level FlightAware ADS-B (KDZJ)
07:22AM 34.4084 -83.4564 346° North 451 519 36,600 -720 Descending FlightAware ADS-B (KDZJ)
07:22AM 34.4895 -83.4797 347° North 464 534 36,100 -540 Descending FlightAware ADS-B (KDZJ)
07:23AM 34.5622 -83.5007 347° North 465 535 36,000 -120 Descending FlightAware ADS-B (KDZJ)
07:24AM 34.6587 -83.5285 347° North 466 536 36,000  Level FlightAware ADS-B (KDZJ)
07:24AM 34.7431 -83.5529 347° North 466 536 36,000  Level FlightAware ADS-B (KDZJ)
07:25AM 34.8272 -83.5774 347° North 465 535 36,000  Level FlightAware ADS-B (KDZJ)
07:26AM 34.9095 -83.6014 347° North 464 534 36,000  Level FlightAware ADS-B (KDZJ)
07:26AM 34.9917 -83.6252 347° North 462 532 36,000  Level FlightAware ADS-B (KDZJ)
07:27AM 35.0750 -83.6496 346° North 451 519 36,000  Level FlightAware ADS-B (KDZJ)
07:28AM 35.1997 -83.6862 346° North 449 517 36,000  Level FlightAware ADS-B (KDZJ)
07:29AM 35.2833 -83.7107 346° North 448 516 36,000  Level FlightAware ADS-B (KDZJ)
07:29AM 35.3595 -83.7332 346° North 447 514 36,000  Level FlightAware ADS-B (KDZJ)
07:30AM 35.4270 -83.7531 346° North 447 514 36,000 -120 Level FlightAware ADS-B (KDZJ)
07:30AM 35.4957 -83.7733 346° North 447 514 35,900  Descending FlightAware ADS-B (KDZJ)
07:32AM 35.6431 -83.8189 346° North 452 520 36,000 -360 Climbing Atlanta Center
07:33AM 35.7639 -83.8544 347° North 452 520 35,200 -1,980 Descending Atlanta Center
07:34AM 35.8892 -83.8900 347° North 452 520 32,100 -2,760 Descending Atlanta Center
07:35AM 36.0103 -83.9258 347° North 452 520 29,700 -1,620 Descending Atlanta Center
07:37AM 36.2375 -83.9861 348° North 434 499 27,100 -1,200 Descending Indianapolis Center
07:38AM 36.3719 -84.0233 347° North 421 484 26,000 -1,080 Descending Indianapolis Center
07:39AM 36.4831 -84.0544 347° North 417 480 25,000 -960 Descending Indianapolis Center
07:40AM 36.5969 -84.0853 348° North 410 472 24,100 -600 Descending Indianapolis Center
07:41AM 36.7042 -84.1147 348° North 400 460 23,800 -900 Descending Indianapolis Center
07:42AM 36.8119 -84.1450 347° North 397 457 22,300 -2,100 Descending Indianapolis Center
07:43AM 36.9233 -84.1764 347° North 404 465 19,500 -2,340 Descending Indianapolis Center
07:44AM 37.0294 -84.2069 347° North 397 457 17,600 -1,920 Descending Indianapolis Center
07:45AM 37.1319 -84.2350 348° North 382 440 15,600 -1,920 Descending Indianapolis Center
07:46AM 37.2294 -84.2633 347° North 365 420 13,700 -1,860 Descending Indianapolis Center
07:47AM 37.3392 -84.2939 348° North 348 400 11,900 -1,620 Descending Indianapolis Center
07:48AM 37.4250 -84.3186 347° North 325 374 10,400 -960 Descending Indianapolis Center
07:49AM 37.5039 -84.3414 347° North 298 343 10,000 -240 Descending Indianapolis Center
07:50AM 37.5844 -84.3561 352° North 291 335 10,000 -60 Level Indianapolis Center
07:51AM 37.6664 -84.3642 356° North 293 337 9,900 -540 Descending Indianapolis Center
07:52AM 37.7456 -84.3714 356° North 288 331 8,900 -1,260 Descending Indianapolis Center
07:53AM 37.8236 -84.3789 356° North 284 327 7,400 -1,380 Descending Indianapolis Center
07:54AM 37.8964 -84.3836 357° North 268 308 6,100 -1,320 Descending Indianapolis Center
07:55AM 37.9786 -84.3872 358° North 258 297 4,800 -1,200 Descending Indianapolis Center
07:56AM 38.0425 -84.3767 North 236 272 3,700 -840 Descending Indianapolis Center
07:57AM 38.1019 -84.3644 North 220 253 3,200 -300 Descending Indianapolis Center
07:58AM 38.1514 -84.3825 344° North 213 245 3,200  Level Indianapolis Center
07:59AM 38.1661 -84.4431 287° West 198 228 3,200  Level Indianapolis Center
08:00AM 38.1361 -84.4947 234° Southwest 190 219 3,200 -300 Level Indianapolis Center
08:02AM 38.1069 -84.5278 222° Southwest 167 192 2,600 -720 Descending Indianapolis Center
08:03AM 38.0736 -84.5642 221° Southwest 149 171 1,800 -780 Descending Indianapolis Center